sensor_id;sensor_type;location;lat;lon;timestamp;temperature;humidity
25436;DHT22;13363;52.772;-3.890;2023-04-01T00:00:21;12.00;99.90
25436;DHT22;13363;52.772;-3.890;2023-04-01T00:02:47;12.00;99.90
25436;DHT22;13363;52.772;-3.890;2023-04-01T00:05:13;12.00;99.90
25436;DHT22;13363;52.772;-3.890;2023-04-01T00:07:39;12.00;99.90
25436;DHT22;13363;52.772;-3.890;2023-04-01T00:10:10;12.00;99.90
25436;DHT22;13363;52.772;-3.890;2023-04-01T00:12:37;12.00;99.90
25436;DHT22;13363;52.772;-3.890;2023-04-01T00:15:05;12.00;99.90
25436;DHT22;13363;52.772;-3.890;2023-04-01T00:17:31;12.00;99.90
25436;DHT22;13363;52.772;-3.890;2023-04-01T00:19:57;12.00;99.90
25436;DHT22;13363;52.772;-3.890;2023-04-01T00:22:24;12.00;99.90
25436;DHT22;13363;52.772;-3.890;2023-04-01T00:24:50;12.00;99.90
25436;DHT22;13363;52.772;-3.890;2023-04-01T00:27:16;12.00;99.90
25436;DHT22;13363;52.772;-3.890;2023-04-01T00:29:43;12.00;99.90
25436;DHT22;13363;52.772;-3.890;2023-04-01T00:32:09;12.00;99.90
25436;DHT22;13363;52.772;-3.890;2023-04-01T00:34:35;9.60;99.90
25436;DHT22;13363;52.772;-3.890;2023-04-01T00:37:01;12.00;99.90
25436;DHT22;13363;52.772;-3.890;2023-04-01T00:39:29;11.90;99.90
25436;DHT22;13363;52.772;-3.890;2023-04-01T00:41:55;11.90;99.90
25436;DHT22;13363;52.772;-3.890;2023-04-01T00:44:34;11.90;99.90
25436;DHT22;13363;52.772;-3.890;2023-04-01T00:47:00;12.60;99.90
25436;DHT22;13363;52.772;-3.890;2023-04-01T00:49:36;11.90;99.90
25436;DHT22;13363;52.772;-3.890;2023-04-01T00:52:04;11.90;99.90
25436;DHT22;13363;52.772;-3.890;2023-04-01T00:54:32;11.90;99.90
25436;DHT22;13363;52.772;-3.890;2023-04-01T00:57:07;11.90;99.90
25436;DHT22;13363;52.772;-3.890;2023-04-01T00:59:39;11.80;99.90
25436;DHT22;13363;52.772;-3.890;2023-04-01T01:02:08;11.80;99.90
25436;DHT22;13363;52.772;-3.890;2023-04-01T01:04:35;11.80;99.90
25436;DHT22;13363;52.772;-3.890;2023-04-01T01:15:23;11.80;99.90
25436;DHT22;13363;52.772;-3.890;2023-04-01T01:17:58;11.80;99.90
25436;DHT22;13363;52.772;-3.890;2023-04-01T01:21:12;11.80;99.90
25436;DHT22;13363;52.772;-3.890;2023-04-01T01:24:07;11.80;99.90
25436;DHT22;13363;52.772;-3.890;2023-04-01T01:36:58;12.00;99.90
25436;DHT22;13363;52.772;-3.890;2023-04-01T01:39:28;11.90;99.90
25436;DHT22;13363;52.772;-3.890;2023-04-01T01:42:03;11.90;99.90
25436;DHT22;13363;52.772;-3.890;2023-04-01T01:44:30;11.80;99.90
25436;DHT22;13363;52.772;-3.890;2023-04-01T01:46:57;11.80;99.90
25436;DHT22;13363;52.772;-3.890;2023-04-01T01:49:24;11.80;99.90
25436;DHT22;13363;52.772;-3.890;2023-04-01T01:51:50;11.80;99.90
25436;DHT22;13363;52.772;-3.890;2023-04-01T01:54:17;11.80;99.90
25436;DHT22;13363;52.772;-3.890;2023-04-01T01:56:46;11.80;99.90
25436;DHT22;13363;52.772;-3.890;2023-04-01T01:59:15;11.70;99.90
25436;DHT22;13363;52.772;-3.890;2023-04-01T02:01:46;11.70;99.90
25436;DHT22;13363;52.772;-3.890;2023-04-01T02:04:14;11.70;99.90
25436;DHT22;13363;52.772;-3.890;2023-04-01T02:06:46;11.70;99.90
25436;DHT22;13363;52.772;-3.890;2023-04-01T02:09:13;11.70;99.90
25436;DHT22;13363;52.772;-3.890;2023-04-01T02:11:44;11.70;99.90
25436;DHT22;13363;52.772;-3.890;2023-04-01T02:14:17;11.60;99.90
25436;DHT22;13363;52.772;-3.890;2023-04-01T02:16:45;11.50;99.90
25436;DHT22;13363;52.772;-3.890;2023-04-01T02:19:15;11.60;99.90
25436;DHT22;13363;52.772;-3.890;2023-04-01T02:21:50;11.60;99.90
25436;DHT22;13363;52.772;-3.890;2023-04-01T02:24:18;11.60;99.90
25436;DHT22;13363;52.772;-3.890;2023-04-01T02:26:49;11.60;99.90
25436;DHT22;13363;52.772;-3.890;2023-04-01T02:29:18;11.60;99.90
25436;DHT22;13363;52.772;-3.890;2023-04-01T02:31:45;11.70;99.90
25436;DHT22;13363;52.772;-3.890;2023-04-01T02:34:11;11.60;99.90
25436;DHT22;13363;52.772;-3.890;2023-04-01T02:36:38;11.60;99.90
25436;DHT22;13363;52.772;-3.890;2023-04-01T02:39:04;11.60;99.90
25436;DHT22;13363;52.772;-3.890;2023-04-01T02:41:30;11.50;99.90
25436;DHT22;13363;52.772;-3.890;2023-04-01T02:43:56;11.60;99.90
25436;DHT22;13363;52.772;-3.890;2023-04-01T02:46:24;11.60;99.90
25436;DHT22;13363;52.772;-3.890;2023-04-01T02:48:50;11.60;99.90
25436;DHT22;13363;52.772;-3.890;2023-04-01T02:51:15;11.60;99.90
25436;DHT22;13363;52.772;-3.890;2023-04-01T02:53:41;11.50;99.90
25436;DHT22;13363;52.772;-3.890;2023-04-01T02:56:07;11.50;99.90
25436;DHT22;13363;52.772;-3.890;2023-04-01T02:58:32;11.40;99.90
25436;DHT22;13363;52.772;-3.890;2023-04-01T03:00:58;11.40;99.90
25436;DHT22;13363;52.772;-3.890;2023-04-01T03:03:24;11.40;99.90
25436;DHT22;13363;52.772;-3.890;2023-04-01T03:05:50;11.40;99.90
25436;DHT22;13363;52.772;-3.890;2023-04-01T03:08:16;11.30;99.90
25436;DHT22;13363;52.772;-3.890;2023-04-01T03:10:41;11.30;99.90
25436;DHT22;13363;52.772;-3.890;2023-04-01T03:13:07;11.30;99.90
25436;DHT22;13363;52.772;-3.890;2023-04-01T03:15:33;11.30;99.90
25436;DHT22;13363;52.772;-3.890;2023-04-01T03:17:58;11.30;99.90
25436;DHT22;13363;52.772;-3.890;2023-04-01T03:20:24;11.30;99.90
25436;DHT22;13363;52.772;-3.890;2023-04-01T03:22:50;11.30;99.90
25436;DHT22;13363;52.772;-3.890;2023-04-01T03:27:41;11.30;99.90
25436;DHT22;13363;52.772;-3.890;2023-04-01T03:30:08;11.30;99.90
25436;DHT22;13363;52.772;-3.890;2023-04-01T03:32:33;11.30;99.90
25436;DHT22;13363;52.772;-3.890;2023-04-01T03:34:59;11.30;99.90
25436;DHT22;13363;52.772;-3.890;2023-04-01T03:37:25;11.20;99.90
25436;DHT22;13363;52.772;-3.890;2023-04-01T03:42:17;11.20;99.90
25436;DHT22;13363;52.772;-3.890;2023-04-01T03:44:43;11.20;99.90
25436;DHT22;13363;52.772;-3.890;2023-04-01T03:47:08;11.20;99.90
25436;DHT22;13363;52.772;-3.890;2023-04-01T03:49:35;11.20;99.90
25436;DHT22;13363;52.772;-3.890;2023-04-01T03:52:01;11.20;99.90
25436;DHT22;13363;52.772;-3.890;2023-04-01T03:54:26;11.20;99.90
25436;DHT22;13363;52.772;-3.890;2023-04-01T03:56:52;11.20;99.90
25436;DHT22;13363;52.772;-3.890;2023-04-01T03:59:18;11.30;99.90
25436;DHT22;13363;52.772;-3.890;2023-04-01T04:01:46;11.30;99.90
25436;DHT22;13363;52.772;-3.890;2023-04-01T04:04:12;11.20;99.90
25436;DHT22;13363;52.772;-3.890;2023-04-01T04:09:06;11.20;99.90
25436;DHT22;13363;52.772;-3.890;2023-04-01T04:11:32;11.20;99.90
25436;DHT22;13363;52.772;-3.890;2023-04-01T04:13:58;11.20;99.90
25436;DHT22;13363;52.772;-3.890;2023-04-01T04:16:24;11.20;99.90
25436;DHT22;13363;52.772;-3.890;2023-04-01T04:18:50;11.20;99.90
25436;DHT22;13363;52.772;-3.890;2023-04-01T04:21:19;11.20;99.90
25436;DHT22;13363;52.772;-3.890;2023-04-01T04:23:44;11.20;99.90
25436;DHT22;13363;52.772;-3.890;2023-04-01T04:26:12;11.20;99.90
25436;DHT22;13363;52.772;-3.890;2023-04-01T04:28:38;11.20;99.90
25436;DHT22;13363;52.772;-3.890;2023-04-01T04:31:05;11.20;99.90
25436;DHT22;13363;52.772;-3.890;2023-04-01T04:33:32;11.20;99.90
25436;DHT22;13363;52.772;-3.890;2023-04-01T04:35:59;11.30;99.90
25436;DHT22;13363;52.772;-3.890;2023-04-01T04:38:25;11.20;99.90
25436;DHT22;13363;52.772;-3.890;2023-04-01T04:40:51;11.20;99.90
25436;DHT22;13363;52.772;-3.890;2023-04-01T04:43:18;11.20;99.90
25436;DHT22;13363;52.772;-3.890;2023-04-01T04:45:44;11.10;99.90
25436;DHT22;13363;52.772;-3.890;2023-04-01T04:48:12;11.10;99.90
25436;DHT22;13363;52.772;-3.890;2023-04-01T04:50:50;11.10;99.90
25436;DHT22;13363;52.772;-3.890;2023-04-01T04:53:17;11.10;99.90
25436;DHT22;13363;52.772;-3.890;2023-04-01T04:55:44;11.20;99.90
25436;DHT22;13363;52.772;-3.890;2023-04-01T04:58:10;11.10;99.90
25436;DHT22;13363;52.772;-3.890;2023-04-01T05:00:36;11.10;99.90
25436;DHT22;13363;52.772;-3.890;2023-04-01T05:03:01;11.10;99.90
25436;DHT22;13363;52.772;-3.890;2023-04-01T05:05:27;11.10;99.90
25436;DHT22;13363;52.772;-3.890;2023-04-01T05:07:53;11.10;99.90
25436;DHT22;13363;52.772;-3.890;2023-04-01T05:10:19;11.10;99.90
25436;DHT22;13363;52.772;-3.890;2023-04-01T05:12:46;11.20;99.90
25436;DHT22;13363;52.772;-3.890;2023-04-01T05:15:12;11.10;99.90
25436;DHT22;13363;52.772;-3.890;2023-04-01T05:17:37;11.10;99.90
25436;DHT22;13363;52.772;-3.890;2023-04-01T05:20:04;11.00;99.90
25436;DHT22;13363;52.772;-3.890;2023-04-01T05:22:30;11.10;99.90
25436;DHT22;13363;52.772;-3.890;2023-04-01T05:24:55;11.10;99.90
25436;DHT22;13363;52.772;-3.890;2023-04-01T05:27:21;11.00;99.90
25436;DHT22;13363;52.772;-3.890;2023-04-01T05:29:47;11.00;99.90
25436;DHT22;13363;52.772;-3.890;2023-04-01T05:32:12;11.00;99.90
25436;DHT22;13363;52.772;-3.890;2023-04-01T05:37:04;11.00;99.90
25436;DHT22;13363;52.772;-3.890;2023-04-01T05:39:30;10.90;99.90
25436;DHT22;13363;52.772;-3.890;2023-04-01T05:41:56;11.10;99.90
25436;DHT22;13363;52.772;-3.890;2023-04-01T05:44:21;11.00;99.90
25436;DHT22;13363;52.772;-3.890;2023-04-01T05:46:47;11.00;99.90
25436;DHT22;13363;52.772;-3.890;2023-04-01T05:49:13;11.00;99.90
25436;DHT22;13363;52.772;-3.890;2023-04-01T05:51:38;11.00;99.90
25436;DHT22;13363;52.772;-3.890;2023-04-01T05:54:05;10.90;99.90
25436;DHT22;13363;52.772;-3.890;2023-04-01T05:56:31;10.90;99.90
25436;DHT22;13363;52.772;-3.890;2023-04-01T05:58:56;11.00;99.90
25436;DHT22;13363;52.772;-3.890;2023-04-01T06:01:22;11.00;99.90
25436;DHT22;13363;52.772;-3.890;2023-04-01T06:03:48;10.90;99.90
25436;DHT22;13363;52.772;-3.890;2023-04-01T06:06:26;10.90;99.90
25436;DHT22;13363;52.772;-3.890;2023-04-01T06:08:53;11.00;99.90
25436;DHT22;13363;52.772;-3.890;2023-04-01T06:20:42;11.10;99.90
25436;DHT22;13363;52.772;-3.890;2023-04-01T06:28:43;11.10;99.90
25436;DHT22;13363;52.772;-3.890;2023-04-01T06:31:24;11.10;99.90
25436;DHT22;13363;52.772;-3.890;2023-04-01T06:54:03;11.40;99.90
25436;DHT22;13363;52.772;-3.890;2023-04-01T06:56:30;11.30;99.90
25436;DHT22;13363;52.772;-3.890;2023-04-01T06:59:16;11.30;99.90
25436;DHT22;13363;52.772;-3.890;2023-04-01T07:01:47;11.40;99.90
25436;DHT22;13363;52.772;-3.890;2023-04-01T07:06:55;11.40;99.90
25436;DHT22;13363;52.772;-3.890;2023-04-01T07:09:26;11.40;99.90
25436;DHT22;13363;52.772;-3.890;2023-04-01T07:11:56;11.50;99.90
25436;DHT22;13363;52.772;-3.890;2023-04-01T07:14:27;11.60;99.90
25436;DHT22;13363;52.772;-3.890;2023-04-01T07:17:25;11.60;99.90
25436;DHT22;13363;52.772;-3.890;2023-04-01T07:22:38;11.70;99.90
25436;DHT22;13363;52.772;-3.890;2023-04-01T07:25:21;11.70;99.90
25436;DHT22;13363;52.772;-3.890;2023-04-01T07:27:48;11.70;99.90
25436;DHT22;13363;52.772;-3.890;2023-04-01T07:30:19;11.80;99.90
25436;DHT22;13363;52.772;-3.890;2023-04-01T07:32:50;11.90;99.90
25436;DHT22;13363;52.772;-3.890;2023-04-01T07:38:10;12.00;99.90
25436;DHT22;13363;52.772;-3.890;2023-04-01T07:52:04;12.50;99.90
25436;DHT22;13363;52.772;-3.890;2023-04-01T08:00:14;12.70;99.90
25436;DHT22;13363;52.772;-3.890;2023-04-01T08:08:41;13.00;99.90
25436;DHT22;13363;52.772;-3.890;2023-04-01T08:11:27;12.90;99.90
25436;DHT22;13363;52.772;-3.890;2023-04-01T08:17:02;12.70;99.90
25436;DHT22;13363;52.772;-3.890;2023-04-01T08:20:13;12.50;99.90
25436;DHT22;13363;52.772;-3.890;2023-04-01T08:25:32;12.50;99.90
25436;DHT22;13363;52.772;-3.890;2023-04-01T08:28:24;12.60;99.90
25436;DHT22;13363;52.772;-3.890;2023-04-01T08:33:57;12.70;99.90
25436;DHT22;13363;52.772;-3.890;2023-04-01T08:36:29;12.70;99.90
25436;DHT22;13363;52.772;-3.890;2023-04-01T08:39:07;12.90;99.90
25436;DHT22;13363;52.772;-3.890;2023-04-01T08:52:20;12.80;99.90
25436;DHT22;13363;52.772;-3.890;2023-04-01T08:57:56;12.90;99.90
25436;DHT22;13363;52.772;-3.890;2023-04-01T09:00:54;12.90;99.90
25436;DHT22;13363;52.772;-3.890;2023-04-01T09:06:38;13.00;99.90
25436;DHT22;13363;52.772;-3.890;2023-04-01T09:12:33;13.20;99.90
25436;DHT22;13363;52.772;-3.890;2023-04-01T09:17:53;13.20;99.90
25436;DHT22;13363;52.772;-3.890;2023-04-01T09:20:47;13.20;99.90
25436;DHT22;13363;52.772;-3.890;2023-04-01T09:23:35;13.00;99.90
25436;DHT22;13363;52.772;-3.890;2023-04-01T09:29:05;12.60;99.90
25436;DHT22;13363;52.772;-3.890;2023-04-01T09:31:48;12.60;99.90
25436;DHT22;13363;52.772;-3.890;2023-04-01T09:36:45;12.60;99.90
25436;DHT22;13363;52.772;-3.890;2023-04-01T09:39:42;12.70;99.90
25436;DHT22;13363;52.772;-3.890;2023-04-01T09:45:09;12.80;99.90
25436;DHT22;13363;52.772;-3.890;2023-04-01T09:54:10;12.90;99.90
25436;DHT22;13363;52.772;-3.890;2023-04-01T10:11:03;12.80;99.90
25436;DHT22;13363;52.772;-3.890;2023-04-01T10:14:05;12.90;99.90
25436;DHT22;13363;52.772;-3.890;2023-04-01T10:16:51;12.90;99.90
25436;DHT22;13363;52.772;-3.890;2023-04-01T10:36:06;13.90;99.90
25436;DHT22;13363;52.772;-3.890;2023-04-01T11:01:05;15.10;99.90
25436;DHT22;13363;52.772;-3.890;2023-04-01T11:34:36;16.50;99.90
25436;DHT22;13363;52.772;-3.890;2023-04-01T11:39:59;16.50;99.90
25436;DHT22;13363;52.772;-3.890;2023-04-01T11:48:04;16.60;99.90
25436;DHT22;13363;52.772;-3.890;2023-04-01T11:53:52;15.90;99.90
25436;DHT22;13363;52.772;-3.890;2023-04-01T11:59:04;16.30;99.90
25436;DHT22;13363;52.772;-3.890;2023-04-01T12:01:54;16.50;99.90
25436;DHT22;13363;52.772;-3.890;2023-04-01T12:12:35;16.00;99.90
25436;DHT22;13363;52.772;-3.890;2023-04-01T12:15:16;16.10;99.90
25436;DHT22;13363;52.772;-3.890;2023-04-01T12:20:36;16.50;99.90
25436;DHT22;13363;52.772;-3.890;2023-04-01T12:23:16;16.60;99.90
25436;DHT22;13363;52.772;-3.890;2023-04-01T12:36:30;16.70;99.90
25436;DHT22;13363;52.772;-3.890;2023-04-01T12:42:12;17.10;99.90
25436;DHT22;13363;52.772;-3.890;2023-04-01T12:53:20;16.30;99.90
25436;DHT22;13363;52.772;-3.890;2023-04-01T12:55:48;16.50;99.90
25436;DHT22;13363;52.772;-3.890;2023-04-01T12:58:43;16.50;99.90
25436;DHT22;13363;52.772;-3.890;2023-04-01T13:01:30;16.60;99.90
25436;DHT22;13363;52.772;-3.890;2023-04-01T13:15:37;16.80;99.90
25436;DHT22;13363;52.772;-3.890;2023-04-01T13:21:18;16.30;99.90
25436;DHT22;13363;52.772;-3.890;2023-04-01T13:24:08;16.60;99.90
25436;DHT22;13363;52.772;-3.890;2023-04-01T13:29:59;16.20;99.90
25436;DHT22;13363;52.772;-3.890;2023-04-01T14:10:43;16.60;99.90
25436;DHT22;13363;52.772;-3.890;2023-04-01T14:13:24;16.50;99.90
25436;DHT22;13363;52.772;-3.890;2023-04-01T14:18:51;16.20;99.90
25436;DHT22;13363;52.772;-3.890;2023-04-01T14:27:09;16.00;99.90
25436;DHT22;13363;52.772;-3.890;2023-04-01T14:46:22;15.80;99.90
25436;DHT22;13363;52.772;-3.890;2023-04-01T14:49:05;15.70;99.90
25436;DHT22;13363;52.772;-3.890;2023-04-01T14:51:40;15.70;99.90
25436;DHT22;13363;52.772;-3.890;2023-04-01T14:54:16;15.50;99.90
25436;DHT22;13363;52.772;-3.890;2023-04-01T14:59:28;15.50;99.90
25436;DHT22;13363;52.772;-3.890;2023-04-01T15:13:42;15.10;99.90
25436;DHT22;13363;52.772;-3.890;2023-04-01T15:19:20;15.10;99.90
25436;DHT22;13363;52.772;-3.890;2023-04-01T15:24:46;14.90;99.90
25436;DHT22;13363;52.772;-3.890;2023-04-01T15:30:12;14.70;99.90
25436;DHT22;13363;52.772;-3.890;2023-04-01T15:43:44;15.00;99.90
25436;DHT22;13363;52.772;-3.890;2023-04-01T15:57:38;15.00;99.90
25436;DHT22;13363;52.772;-3.890;2023-04-01T16:00:21;15.10;99.90
25436;DHT22;13363;52.772;-3.890;2023-04-01T16:08:33;14.90;99.90
25436;DHT22;13363;52.772;-3.890;2023-04-01T16:11:19;14.90;99.90
25436;DHT22;13363;52.772;-3.890;2023-04-01T16:19:49;14.70;99.90
25436;DHT22;13363;52.772;-3.890;2023-04-01T16:22:23;14.60;99.90
25436;DHT22;13363;52.772;-3.890;2023-04-01T16:36:20;14.20;99.90
25436;DHT22;13363;52.772;-3.890;2023-04-01T16:44:24;13.90;99.90
25436;DHT22;13363;52.772;-3.890;2023-04-01T16:46:56;13.80;99.90
25436;DHT22;13363;52.772;-3.890;2023-04-01T16:49:37;13.60;99.90
25436;DHT22;13363;52.772;-3.890;2023-04-01T17:02:30;13.40;99.90
25436;DHT22;13363;52.772;-3.890;2023-04-01T17:05:05;13.30;99.90
25436;DHT22;13363;52.772;-3.890;2023-04-01T17:07:47;13.30;99.90
25436;DHT22;13363;52.772;-3.890;2023-04-01T17:15:43;13.20;99.90
25436;DHT22;13363;52.772;-3.890;2023-04-01T17:18:20;13.20;99.90
25436;DHT22;13363;52.772;-3.890;2023-04-01T17:32:43;13.10;99.90
25436;DHT22;13363;52.772;-3.890;2023-04-01T17:35:22;12.90;99.90
25436;DHT22;13363;52.772;-3.890;2023-04-01T17:54:51;12.50;99.90
25436;DHT22;13363;52.772;-3.890;2023-04-01T17:57:28;12.50;99.90
25436;DHT22;13363;52.772;-3.890;2023-04-01T18:06:21;12.20;99.90
25436;DHT22;13363;52.772;-3.890;2023-04-01T18:09:28;12.20;99.90
25436;DHT22;13363;52.772;-3.890;2023-04-01T18:12:10;12.20;99.90
25436;DHT22;13363;52.772;-3.890;2023-04-01T18:15:00;12.00;99.90
25436;DHT22;13363;52.772;-3.890;2023-04-01T18:17:42;11.90;99.90
25436;DHT22;13363;52.772;-3.890;2023-04-01T18:20:43;11.70;99.90
25436;DHT22;13363;52.772;-3.890;2023-04-01T18:23:14;11.60;99.90
25436;DHT22;13363;52.772;-3.890;2023-04-01T18:25:54;11.60;99.90
25436;DHT22;13363;52.772;-3.890;2023-04-01T18:28:43;11.50;99.90
25436;DHT22;13363;52.772;-3.890;2023-04-01T18:31:16;11.40;99.90
25436;DHT22;13363;52.772;-3.890;2023-04-01T18:44:19;11.00;99.90
25436;DHT22;13363;52.772;-3.890;2023-04-01T18:52:33;10.80;99.90
25436;DHT22;13363;52.772;-3.890;2023-04-01T18:57:27;10.70;99.90
25436;DHT22;13363;52.772;-3.890;2023-04-01T19:00:14;10.60;99.90
25436;DHT22;13363;52.772;-3.890;2023-04-01T19:02:45;10.60;99.90
25436;DHT22;13363;52.772;-3.890;2023-04-01T19:05:35;10.50;99.90
25436;DHT22;13363;52.772;-3.890;2023-04-01T19:08:28;10.50;99.90
25436;DHT22;13363;52.772;-3.890;2023-04-01T19:13:35;10.40;99.90
25436;DHT22;13363;52.772;-3.890;2023-04-01T19:16:25;10.30;99.90
25436;DHT22;13363;52.772;-3.890;2023-04-01T19:40:41;9.80;99.90
25436;DHT22;13363;52.772;-3.890;2023-04-01T19:46:09;9.70;99.90
25436;DHT22;13363;52.772;-3.890;2023-04-01T19:54:28;9.60;99.90
25436;DHT22;13363;52.772;-3.890;2023-04-01T20:16:09;9.50;99.90
25436;DHT22;13363;52.772;-3.890;2023-04-01T20:18:50;9.50;99.90
25436;DHT22;13363;52.772;-3.890;2023-04-01T20:21:36;9.60;99.90
25436;DHT22;13363;52.772;-3.890;2023-04-01T20:26:53;9.40;99.90
25436;DHT22;13363;52.772;-3.890;2023-04-01T20:29:35;9.40;99.90
25436;DHT22;13363;52.772;-3.890;2023-04-01T20:37:54;9.20;99.90
25436;DHT22;13363;52.772;-3.890;2023-04-01T20:43:07;9.30;99.90
25436;DHT22;13363;52.772;-3.890;2023-04-01T20:46:16;9.20;99.90
25436;DHT22;13363;52.772;-3.890;2023-04-01T20:52:01;9.20;99.90
25436;DHT22;13363;52.772;-3.890;2023-04-01T20:55:00;9.20;99.90
25436;DHT22;13363;52.772;-3.890;2023-04-01T21:08:33;9.20;99.90
25436;DHT22;13363;52.772;-3.890;2023-04-01T21:11:16;9.30;99.90
25436;DHT22;13363;52.772;-3.890;2023-04-01T21:33:01;9.20;99.90
25436;DHT22;13363;52.772;-3.890;2023-04-01T21:51:55;9.10;99.90
25436;DHT22;13363;52.772;-3.890;2023-04-01T22:00:14;8.90;99.90
25436;DHT22;13363;52.772;-3.890;2023-04-01T22:03:15;8.90;99.90
25436;DHT22;13363;52.772;-3.890;2023-04-01T22:06:05;8.80;99.90
25436;DHT22;13363;52.772;-3.890;2023-04-01T22:11:08;8.70;99.90
25436;DHT22;13363;52.772;-3.890;2023-04-01T22:22:00;8.50;99.90
25436;DHT22;13363;52.772;-3.890;2023-04-01T22:27:24;8.30;99.90
25436;DHT22;13363;52.772;-3.890;2023-04-01T22:30:00;8.30;99.90
25436;DHT22;13363;52.772;-3.890;2023-04-01T22:40:42;8.00;99.90
25436;DHT22;13363;52.772;-3.890;2023-04-01T22:43:37;7.90;99.90
25436;DHT22;13363;52.772;-3.890;2023-04-01T22:49:30;7.90;99.90
25436;DHT22;13363;52.772;-3.890;2023-04-01T22:54:49;7.80;99.90
25436;DHT22;13363;52.772;-3.890;2023-04-01T22:57:37;7.70;99.90
25436;DHT22;13363;52.772;-3.890;2023-04-01T23:00:54;7.60;99.90
25436;DHT22;13363;52.772;-3.890;2023-04-01T23:03:17;7.60;99.90
25436;DHT22;13363;52.772;-3.890;2023-04-01T23:05:50;7.50;99.90
25436;DHT22;13363;52.772;-3.890;2023-04-01T23:11:06;7.60;99.90
25436;DHT22;13363;52.772;-3.890;2023-04-01T23:13:41;7.60;99.90
25436;DHT22;13363;52.772;-3.890;2023-04-01T23:16:10;7.60;99.90
25436;DHT22;13363;52.772;-3.890;2023-04-01T23:19:00;7.70;99.90
25436;DHT22;13363;52.772;-3.890;2023-04-01T23:21:51;7.80;99.90
25436;DHT22;13363;52.772;-3.890;2023-04-01T23:24:30;8.90;99.90
25436;DHT22;13363;52.772;-3.890;2023-04-01T23:29:29;7.90;99.90
25436;DHT22;13363;52.772;-3.890;2023-04-01T23:32:03;8.00;99.90
25436;DHT22;13363;52.772;-3.890;2023-04-01T23:34:36;8.10;99.90
25436;DHT22;13363;52.772;-3.890;2023-04-01T23:37:11;8.10;99.90
25436;DHT22;13363;52.772;-3.890;2023-04-01T23:39:44;8.10;99.90
25436;DHT22;13363;52.772;-3.890;2023-04-01T23:42:28;8.00;99.90
25436;DHT22;13363;52.772;-3.890;2023-04-01T23:45:05;8.10;99.90
25436;DHT22;13363;52.772;-3.890;2023-04-01T23:47:39;8.10;99.90
25436;DHT22;13363;52.772;-3.890;2023-04-01T23:50:18;8.20;99.90
25436;DHT22;13363;52.772;-3.890;2023-04-01T23:53:10;8.30;99.90
25436;DHT22;13363;52.772;-3.890;2023-04-01T23:55:41;8.30;99.90
